sensor_id;sensor_type;location;lat;lon;timestamp;pressure;altitude;pressure_sealevel;temperature;humidity
78223;BME280;67497;53.058;21.618;2024-01-27T00:01:18;100034.69;;;-0.11;93.02
78223;BME280;67497;53.058;21.618;2024-01-27T00:03:18;100033.06;;;-0.14;93.30
78223;BME280;67497;53.058;21.618;2024-01-27T00:05:19;100023.13;;;-0.27;93.18
78223;BME280;67497;53.058;21.618;2024-01-27T00:07:19;100045.19;;;-0.07;93.26
78223;BME280;67497;53.058;21.618;2024-01-27T00:09:19;100017.53;;;-0.24;93.00
78223;BME280;67497;53.058;21.618;2024-01-27T00:11:20;100033.06;;;-0.14;93.42
78223;BME280;67497;53.058;21.618;2024-01-27T00:13:20;100012.75;;;-0.19;92.66
78223;BME280;67497;53.058;21.618;2024-01-27T00:15:21;100032.28;;;-0.02;92.69
78223;BME280;67497;53.058;21.618;2024-01-27T00:17:21;100032.28;;;-0.02;92.43
78223;BME280;67497;53.058;21.618;2024-01-27T00:19:26;100034.50;;;0.06;92.37
78223;BME280;67497;53.058;21.618;2024-01-27T00:21:26;100046.47;;;0.16;92.27
78223;BME280;67497;53.058;21.618;2024-01-27T00:23:27;100038.94;;;0.07;92.10
78223;BME280;67497;53.058;21.618;2024-01-27T00:25:27;100045.28;;;0.06;92.23
78223;BME280;67497;53.058;21.618;2024-01-27T00:27:28;100034.81;;;0.02;92.45
78223;BME280;67497;53.058;21.618;2024-01-27T00:29:28;100044.72;;;0.15;92.66
78223;BME280;67497;53.058;21.618;2024-01-27T00:31:28;100045.66;;;0.14;92.04
78223;BME280;67497;53.058;21.618;2024-01-27T00:33:29;100044.91;;;0.12;92.17
78223;BME280;67497;53.058;21.618;2024-01-27T00:35:29;100048.09;;;0.19;92.55
78223;BME280;67497;53.058;21.618;2024-01-27T00:37:30;100052.44;;;0.21;92.12
78223;BME280;67497;53.058;21.618;2024-01-27T00:39:31;100040.47;;;0.11;92.21
78223;BME280;67497;53.058;21.618;2024-01-27T00:41:33;100044.50;;;0.04;92.35
78223;BME280;67497;53.058;21.618;2024-01-27T00:43:33;100066.63;;;0.09;93.32
78223;BME280;67497;53.058;21.618;2024-01-27T00:45:33;100060.88;;;0.15;93.74
78223;BME280;67497;53.058;21.618;2024-01-27T00:47:34;100040.88;;;0.19;93.61
78223;BME280;67497;53.058;21.618;2024-01-27T00:49:34;100070.31;;;0.22;93.40
78223;BME280;67497;53.058;21.618;2024-01-27T00:51:35;100071.66;;;0.15;94.02
78223;BME280;67497;53.058;21.618;2024-01-27T00:53:35;100045.56;;;0.02;94.16
78223;BME280;67497;53.058;21.618;2024-01-27T00:55:36;100076.94;;;0.17;94.90
78223;BME280;67497;53.058;21.618;2024-01-27T00:57:36;100079.63;;;0.17;94.90
78223;BME280;67497;53.058;21.618;2024-01-27T00:59:40;100078.56;;;0.19;95.44
78223;BME280;67497;53.058;21.618;2024-01-27T01:01:40;100077.72;;;0.19;95.01
78223;BME280;67497;53.058;21.618;2024-01-27T01:03:40;100081.88;;;0.24;95.02
78223;BME280;67497;53.058;21.618;2024-01-27T01:05:41;100080.81;;;0.27;95.44
78223;BME280;67497;53.058;21.618;2024-01-27T01:07:41;100085.16;;;0.29;95.50
78223;BME280;67497;53.058;21.618;2024-01-27T01:09:42;100079.75;;;0.29;95.37
78223;BME280;67497;53.058;21.618;2024-01-27T01:11:42;100087.03;;;0.27;95.74
78223;BME280;67497;53.058;21.618;2024-01-27T01:13:42;100097.38;;;0.35;95.84
78223;BME280;67497;53.058;21.618;2024-01-27T01:15:43;100084.75;;;0.35;95.76
78223;BME280;67497;53.058;21.618;2024-01-27T01:17:43;100095.06;;;0.43;95.77
78223;BME280;67497;53.058;21.618;2024-01-27T01:19:43;100084.38;;;0.41;95.38
78223;BME280;67497;53.058;21.618;2024-01-27T01:21:44;100081.97;;;0.37;95.12
78223;BME280;67497;53.058;21.618;2024-01-27T01:23:44;100094.78;;;0.47;95.65
78223;BME280;67497;53.058;21.618;2024-01-27T01:25:44;100089.00;;;0.53;95.06
78223;BME280;67497;53.058;21.618;2024-01-27T01:27:46;100093.81;;;0.48;95.08
78223;BME280;67497;53.058;21.618;2024-01-27T01:29:46;100095.91;;;0.43;95.13
78223;BME280;67497;53.058;21.618;2024-01-27T01:31:46;100100.28;;;0.46;95.16
78223;BME280;67497;53.058;21.618;2024-01-27T01:33:47;100106.59;;;0.45;95.55
78223;BME280;67497;53.058;21.618;2024-01-27T01:35:47;100109.88;;;0.50;95.74
78223;BME280;67497;53.058;21.618;2024-01-27T01:37:47;100114.41;;;0.49;95.39
78223;BME280;67497;53.058;21.618;2024-01-27T01:39:48;100108.13;;;0.49;95.45
78223;BME280;67497;53.058;21.618;2024-01-27T01:41:49;100117.66;;;0.54;95.29
78223;BME280;67497;53.058;21.618;2024-01-27T01:43:49;100119.59;;;0.52;95.49
78223;BME280;67497;53.058;21.618;2024-01-27T01:45:49;100110.38;;;0.56;95.62
78223;BME280;67497;53.058;21.618;2024-01-27T01:47:50;100114.03;;;0.55;95.62
78223;BME280;67497;53.058;21.618;2024-01-27T01:49:52;100120.94;;;0.59;95.92
78223;BME280;67497;53.058;21.618;2024-01-27T01:51:52;100117.28;;;0.60;95.72
78223;BME280;67497;53.058;21.618;2024-01-27T01:53:58;100124.81;;;0.70;95.69
78223;BME280;67497;53.058;21.618;2024-01-27T01:55:58;100114.69;;;0.73;95.34
78223;BME280;67497;53.058;21.618;2024-01-27T01:57:59;100118.06;;;0.77;95.41
78223;BME280;67497;53.058;21.618;2024-01-27T01:59:59;100120.00;;;0.75;95.88
78223;BME280;67497;53.058;21.618;2024-01-27T02:02:00;100114.69;;;0.73;95.91
78223;BME280;67497;53.058;21.618;2024-01-27T02:04:00;100126.66;;;0.83;95.79
78223;BME280;67497;53.058;21.618;2024-01-27T02:06:00;100110.75;;;0.79;95.79
78223;BME280;67497;53.058;21.618;2024-01-27T02:08:01;100118.16;;;0.89;95.47
78223;BME280;67497;53.058;21.618;2024-01-27T02:10:12;100113.81;;;0.87;95.96
78223;BME280;67497;53.058;21.618;2024-01-27T02:12:13;100120.38;;;0.97;95.75
78223;BME280;67497;53.058;21.618;2024-01-27T02:14:13;100127.69;;;0.95;95.61
78223;BME280;67497;53.058;21.618;2024-01-27T02:16:14;100118.63;;;0.96;95.20
78223;BME280;67497;53.058;21.618;2024-01-27T02:18:15;100124.31;;;1.05;95.33
78223;BME280;67497;53.058;21.618;2024-01-27T02:20:16;100128.66;;;1.08;95.21
78223;BME280;67497;53.058;21.618;2024-01-27T02:22:16;100133.06;;;1.09;95.03
78223;BME280;67497;53.058;21.618;2024-01-27T02:24:16;100132.00;;;1.11;95.22
78223;BME280;67497;53.058;21.618;2024-01-27T02:26:17;100132.09;;;1.10;95.09
78223;BME280;67497;53.058;21.618;2024-01-27T02:28:17;100131.34;;;1.08;95.47
78223;BME280;67497;53.058;21.618;2024-01-27T02:30:17;100129.28;;;1.11;94.88
78223;BME280;67497;53.058;21.618;2024-01-27T02:32:18;100131.91;;;1.13;94.80
78223;BME280;67497;53.058;21.618;2024-01-27T02:34:18;100133.63;;;1.14;94.99
78223;BME280;67497;53.058;21.618;2024-01-27T02:36:18;100123.25;;;1.08;94.97
78223;BME280;67497;53.058;21.618;2024-01-27T02:38:19;100135.38;;;1.15;95.09
78223;BME280;67497;53.058;21.618;2024-01-27T02:40:19;100137.31;;;1.13;95.33
78223;BME280;67497;53.058;21.618;2024-01-27T02:42:19;100133.81;;;1.11;95.42
78223;BME280;67497;53.058;21.618;2024-01-27T02:44:20;100140.97;;;1.12;95.52
78223;BME280;67497;53.058;21.618;2024-01-27T02:46:20;100136.63;;;1.09;95.11
78223;BME280;67497;53.058;21.618;2024-01-27T02:48:21;100141.06;;;1.10;95.45
78223;BME280;67497;53.058;21.618;2024-01-27T02:50:21;100135.56;;;1.12;95.29
78223;BME280;67497;53.058;21.618;2024-01-27T02:52:21;100143.78;;;1.10;95.04
78223;BME280;67497;53.058;21.618;2024-01-27T02:54:22;100145.59;;;1.10;95.49
78223;BME280;67497;53.058;21.618;2024-01-27T02:56:22;100140.38;;;1.07;95.39
78223;BME280;67497;53.058;21.618;2024-01-27T02:58:22;100149.44;;;1.20;95.21
78223;BME280;67497;53.058;21.618;2024-01-27T03:00:23;100156.38;;;1.24;94.92
78223;BME280;67497;53.058;21.618;2024-01-27T03:02:23;100155.50;;;1.24;94.76
78223;BME280;67497;53.058;21.618;2024-01-27T03:04:24;100158.97;;;1.26;94.74
78223;BME280;67497;53.058;21.618;2024-01-27T03:06:24;100164.34;;;1.26;94.54
78223;BME280;67497;53.058;21.618;2024-01-27T03:08:25;100170.63;;;1.26;94.51
78223;BME280;67497;53.058;21.618;2024-01-27T03:10:25;100156.38;;;1.24;94.51
78223;BME280;67497;53.058;21.618;2024-01-27T03:12:25;100164.53;;;1.23;94.76
78223;BME280;67497;53.058;21.618;2024-01-27T03:14:26;100175.25;;;1.24;94.62
78223;BME280;67497;53.058;21.618;2024-01-27T03:16:27;100179.84;;;1.22;94.94
78223;BME280;67497;53.058;21.618;2024-01-27T03:18:27;100167.34;;;1.21;94.80
78223;BME280;67497;53.058;21.618;2024-01-27T03:20:28;100173.91;;;1.17;94.53
78223;BME280;67497;53.058;21.618;2024-01-27T03:22:31;100184.13;;;1.26;94.60
78223;BME280;67497;53.058;21.618;2024-01-27T03:24:31;100175.16;;;1.26;94.63
78223;BME280;67497;53.058;21.618;2024-01-27T03:26:31;100177.72;;;1.27;94.66
78223;BME280;67497;53.058;21.618;2024-01-27T03:28:32;100187.69;;;1.27;94.53
78223;BME280;67497;53.058;21.618;2024-01-27T03:30:32;100190.66;;;1.22;94.70
78223;BME280;67497;53.058;21.618;2024-01-27T03:32:33;100192.41;;;1.23;95.18
78223;BME280;67497;53.058;21.618;2024-01-27T03:34:33;100183.75;;;1.18;94.96
78223;BME280;67497;53.058;21.618;2024-01-27T03:36:33;100181.13;;;1.16;95.03
78223;BME280;67497;53.058;21.618;2024-01-27T03:38:34;100193.28;;;1.24;94.68
78223;BME280;67497;53.058;21.618;2024-01-27T03:40:36;100189.59;;;1.25;94.70
78223;BME280;67497;53.058;21.618;2024-01-27T03:42:37;100192.00;;;1.29;94.38
78223;BME280;67497;53.058;21.618;2024-01-27T03:44:37;100193.53;;;1.33;94.16
78223;BME280;67497;53.058;21.618;2024-01-27T03:46:37;100196.44;;;1.30;94.41
78223;BME280;67497;53.058;21.618;2024-01-27T03:48:39;100190.94;;;1.32;93.84
78223;BME280;67497;53.058;21.618;2024-01-27T03:50:39;100198.75;;;1.36;93.89
78223;BME280;67497;53.058;21.618;2024-01-27T03:52:41;100207.59;;;1.38;93.36
78223;BME280;67497;53.058;21.618;2024-01-27T03:54:41;100194.97;;;1.39;93.21
78223;BME280;67497;53.058;21.618;2024-01-27T03:56:42;100209.16;;;1.42;93.42
78223;BME280;67497;53.058;21.618;2024-01-27T03:58:42;100214.63;;;1.41;93.23
78223;BME280;67497;53.058;21.618;2024-01-27T04:00:42;100210.22;;;1.40;93.81
78223;BME280;67497;53.058;21.618;2024-01-27T04:02:43;100218.63;;;1.35;93.73
78223;BME280;67497;53.058;21.618;2024-01-27T04:04:43;100215.03;;;1.35;94.21
78223;BME280;67497;53.058;21.618;2024-01-27T04:06:43;100217.75;;;1.35;93.70
78223;BME280;67497;53.058;21.618;2024-01-27T04:08:44;100214.16;;;1.34;93.77
78223;BME280;67497;53.058;21.618;2024-01-27T04:10:45;100219.00;;;1.29;94.05
78223;BME280;67497;53.058;21.618;2024-01-27T04:12:45;100220.50;;;1.33;94.12
78223;BME280;67497;53.058;21.618;2024-01-27T04:14:45;100235.06;;;1.31;93.83
78223;BME280;67497;53.058;21.618;2024-01-27T04:16:46;100234.19;;;1.30;94.42
78223;BME280;67497;53.058;21.618;2024-01-27T04:18:46;100237.59;;;1.34;93.85
78223;BME280;67497;53.058;21.618;2024-01-27T04:20:47;100230.34;;;1.34;93.83
78223;BME280;67497;53.058;21.618;2024-01-27T04:22:48;100229.41;;;1.35;93.91
78223;BME280;67497;53.058;21.618;2024-01-27T04:24:49;100219.00;;;1.29;93.56
78223;BME280;67497;53.058;21.618;2024-01-27T04:26:52;100224.19;;;1.32;93.69
78223;BME280;67497;53.058;21.618;2024-01-27T04:28:52;100225.72;;;1.36;93.64
78223;BME280;67497;53.058;21.618;2024-01-27T04:30:52;100233.13;;;1.33;93.34
78223;BME280;67497;53.058;21.618;2024-01-27T04:32:53;100239.31;;;1.35;93.36
78223;BME280;67497;53.058;21.618;2024-01-27T04:34:53;100246.56;;;1.34;93.33
78223;BME280;67497;53.058;21.618;2024-01-27T04:36:53;100239.22;;;1.36;93.32
78223;BME280;67497;53.058;21.618;2024-01-27T04:38:54;100244.72;;;1.35;93.78
78223;BME280;67497;53.058;21.618;2024-01-27T04:40:54;100242.09;;;1.33;93.37
78223;BME280;67497;53.058;21.618;2024-01-27T04:42:55;100236.31;;;1.39;93.74
78223;BME280;67497;53.058;21.618;2024-01-27T04:44:55;100238.66;;;1.31;93.37
78223;BME280;67497;53.058;21.618;2024-01-27T04:46:55;100252.03;;;1.33;94.14
78223;BME280;67497;53.058;21.618;2024-01-27T04:48:56;100251.06;;;1.34;94.13
78223;BME280;67497;53.058;21.618;2024-01-27T04:50:56;100240.59;;;1.29;94.12
78223;BME280;67497;53.058;21.618;2024-01-27T04:52:56;100246.94;;;1.28;94.42
78223;BME280;67497;53.058;21.618;2024-01-27T04:54:57;100245.88;;;1.31;94.33
78223;BME280;67497;53.058;21.618;2024-01-27T04:56:58;100249.94;;;1.38;94.29
78223;BME280;67497;53.058;21.618;2024-01-27T04:58:58;100241.34;;;1.31;94.01
78223;BME280;67497;53.058;21.618;2024-01-27T05:00:59;100254.84;;;1.31;94.53
78223;BME280;67497;53.058;21.618;2024-01-27T05:02:59;100244.34;;;1.27;94.53
78223;BME280;67497;53.058;21.618;2024-01-27T05:05:03;100248.69;;;1.29;94.72
78223;BME280;67497;53.058;21.618;2024-01-27T05:07:04;100255.03;;;1.28;94.93
78223;BME280;67497;53.058;21.618;2024-01-27T05:09:05;100257.91;;;1.25;95.09
78223;BME280;67497;53.058;21.618;2024-01-27T05:11:09;100251.00;;;1.21;95.19
78223;BME280;67497;53.058;21.618;2024-01-27T05:13:09;100253.69;;;1.21;95.44
78223;BME280;67497;53.058;21.618;2024-01-27T05:15:10;100249.44;;;1.17;95.72
78223;BME280;67497;53.058;21.618;2024-01-27T05:17:11;100256.38;;;1.21;95.85
78223;BME280;67497;53.058;21.618;2024-01-27T05:19:11;100255.31;;;1.24;95.78
78223;BME280;67497;53.058;21.618;2024-01-27T05:21:11;100256.97;;;1.26;95.79
78223;BME280;67497;53.058;21.618;2024-01-27T05:23:12;100242.91;;;1.21;95.64
78223;BME280;67497;53.058;21.618;2024-01-27T05:25:12;100253.28;;;1.27;95.47
78223;BME280;67497;53.058;21.618;2024-01-27T05:27:13;100255.03;;;1.28;95.52
78223;BME280;67497;53.058;21.618;2024-01-27T05:29:13;100259.53;;;1.28;95.67
78223;BME280;67497;53.058;21.618;2024-01-27T05:31:13;100261.28;;;1.29;95.52
78223;BME280;67497;53.058;21.618;2024-01-27T05:33:14;100265.44;;;1.34;95.46
78223;BME280;67497;53.058;21.618;2024-01-27T05:35:14;100270.66;;;1.37;95.11
78223;BME280;67497;53.058;21.618;2024-01-27T05:37:14;100265.63;;;1.31;95.13
78223;BME280;67497;53.058;21.618;2024-01-27T05:39:15;100267.63;;;1.28;95.21
78223;BME280;67497;53.058;21.618;2024-01-27T05:41:15;100262.72;;;1.20;95.58
78223;BME280;67497;53.058;21.618;2024-01-27T05:43:16;100273.16;;;1.26;95.37
78223;BME280;67497;53.058;21.618;2024-01-27T05:45:16;100267.25;;;1.19;96.03
78223;BME280;67497;53.058;21.618;2024-01-27T05:47:16;100273.53;;;1.20;95.79
78223;BME280;67497;53.058;21.618;2024-01-27T05:49:17;100273.34;;;1.23;95.67
78223;BME280;67497;53.058;21.618;2024-01-27T05:51:17;100268.63;;;1.27;95.92
78223;BME280;67497;53.058;21.618;2024-01-27T05:53:17;100274.88;;;1.27;95.98
78223;BME280;67497;53.058;21.618;2024-01-27T05:55:18;100283.94;;;1.26;96.02
78223;BME280;67497;53.058;21.618;2024-01-27T05:57:18;100279.22;;;1.30;95.69
78223;BME280;67497;53.058;21.618;2024-01-27T05:59:20;100282.00;;;1.28;95.56
78223;BME280;67497;53.058;21.618;2024-01-27T06:01:20;100280.75;;;1.34;95.59
78223;BME280;67497;53.058;21.618;2024-01-27T06:03:21;100267.56;;;1.29;95.54
78223;BME280;67497;53.058;21.618;2024-01-27T06:05:21;100281.63;;;1.34;94.97
78223;BME280;67497;53.058;21.618;2024-01-27T06:07:21;100280.88;;;1.32;95.14
78223;BME280;67497;53.058;21.618;2024-01-27T06:09:22;100278.34;;;1.29;95.26
78223;BME280;67497;53.058;21.618;2024-01-27T06:11:23;100287.22;;;1.31;95.00
78223;BME280;67497;53.058;21.618;2024-01-27T06:13:24;100288.84;;;1.34;95.24
78223;BME280;67497;53.058;21.618;2024-01-27T06:15:25;100299.84;;;1.31;95.20
78223;BME280;67497;53.058;21.618;2024-01-27T06:17:25;100287.41;;;1.28;94.99
78223;BME280;67497;53.058;21.618;2024-01-27T06:19:25;100299.94;;;1.29;95.21
78223;BME280;67497;53.058;21.618;2024-01-27T06:21:26;100289.53;;;1.23;95.14
78223;BME280;67497;53.058;21.618;2024-01-27T06:23:26;100293.09;;;1.24;95.45
78223;BME280;67497;53.058;21.618;2024-01-27T06:25:27;100287.97;;;1.19;95.13
78223;BME280;67497;53.058;21.618;2024-01-27T06:27:27;100291.47;;;1.35;95.32
78223;BME280;67497;53.058;21.618;2024-01-27T06:29:28;100295.88;;;1.36;94.83
78223;BME280;67497;53.058;21.618;2024-01-27T06:31:29;100293.69;;;1.43;94.86
78223;BME280;67497;53.058;21.618;2024-01-27T06:33:30;100296.38;;;1.43;94.39
78223;BME280;67497;53.058;21.618;2024-01-27T06:35:30;100287.72;;;1.38;94.21
78223;BME280;67497;53.058;21.618;2024-01-27T06:37:31;100287.91;;;1.35;94.34
78223;BME280;67497;53.058;21.618;2024-01-27T06:39:31;100298.00;;;1.31;94.64
78223;BME280;67497;53.058;21.618;2024-01-27T06:41:31;100289.16;;;1.29;94.63
78223;BME280;67497;53.058;21.618;2024-01-27T06:43:32;100293.75;;;1.27;94.50
78223;BME280;67497;53.058;21.618;2024-01-27T06:45:32;100302.53;;;1.31;94.67
78223;BME280;67497;53.058;21.618;2024-01-27T06:47:32;100309.50;;;1.35;94.32
78223;BME280;67497;53.058;21.618;2024-01-27T06:49:33;100304.56;;;1.41;94.14
78223;BME280;67497;53.058;21.618;2024-01-27T06:51:33;100319.41;;;1.48;94.26
78223;BME280;67497;53.058;21.618;2024-01-27T06:53:34;100314.22;;;1.59;93.33
78223;BME280;67497;53.058;21.618;2024-01-27T06:55:34;100303.81;;;1.67;92.90
78223;BME280;67497;53.058;21.618;2024-01-27T06:57:34;100310.53;;;1.74;92.08
78223;BME280;67497;53.058;21.618;2024-01-27T06:59:35;100318.50;;;1.76;91.83
78223;BME280;67497;53.058;21.618;2024-01-27T07:01:35;100317.44;;;1.78;92.35
78223;BME280;67497;53.058;21.618;2024-01-27T07:03:35;100320.56;;;1.72;92.64
78223;BME280;67497;53.058;21.618;2024-01-27T07:05:36;100314.97;;;1.75;92.62
78223;BME280;67497;53.058;21.618;2024-01-27T07:07:40;100315.34;;;1.69;92.15
78223;BME280;67497;53.058;21.618;2024-01-27T07:09:41;100325.78;;;1.75;92.14
78223;BME280;67497;53.058;21.618;2024-01-27T07:11:42;100329.91;;;1.81;91.90
78223;BME280;67497;53.058;21.618;2024-01-27T07:13:42;100334.16;;;1.85;91.79
78223;BME280;67497;53.058;21.618;2024-01-27T07:15:42;100326.41;;;1.93;91.99
78223;BME280;67497;53.058;21.618;2024-01-27T07:17:43;100342.75;;;1.77;91.81
78223;BME280;67497;53.058;21.618;2024-01-27T07:19:43;100328.38;;;1.77;91.85
78223;BME280;67497;53.058;21.618;2024-01-27T07:21:44;100345.94;;;1.70;92.45
78223;BME280;67497;53.058;21.618;2024-01-27T07:23:44;100342.94;;;1.60;92.79
78223;BME280;67497;53.058;21.618;2024-01-27T07:25:45;100355.47;;;1.61;93.10
78223;BME280;67497;53.058;21.618;2024-01-27T07:27:45;100346.50;;;1.61;93.00
78223;BME280;67497;53.058;21.618;2024-01-27T07:29:46;100346.38;;;1.62;93.10
78223;BME280;67497;53.058;21.618;2024-01-27T07:31:47;100353.53;;;1.63;93.29
78223;BME280;67497;53.058;21.618;2024-01-27T07:33:47;100374.06;;;1.66;92.88
78223;BME280;67497;53.058;21.618;2024-01-27T07:35:49;100367.81;;;1.65;92.70
78223;BME280;67497;53.058;21.618;2024-01-27T07:37:49;100372.34;;;1.65;92.72
78223;BME280;67497;53.058;21.618;2024-01-27T07:39:49;100369.94;;;1.74;93.09
78223;BME280;67497;53.058;21.618;2024-01-27T07:41:50;100371.47;;;1.78;92.38
78223;BME280;67497;53.058;21.618;2024-01-27T07:43:50;100386.63;;;1.81;92.32
78223;BME280;67497;53.058;21.618;2024-01-27T07:45:51;100380.94;;;1.86;92.13
78223;BME280;67497;53.058;21.618;2024-01-27T07:47:53;100387.66;;;1.93;92.55
78223;BME280;67497;53.058;21.618;2024-01-27T07:49:53;100391.16;;;1.95;91.62
78223;BME280;67497;53.058;21.618;2024-01-27T07:51:53;100381.63;;;1.89;91.80
78223;BME280;67497;53.058;21.618;2024-01-27T07:53:55;100388.53;;;1.93;91.68
78223;BME280;67497;53.058;21.618;2024-01-27T07:55:55;100391.44;;;1.90;91.71
78223;BME280;67497;53.058;21.618;2024-01-27T07:57:56;100398.00;;;1.86;91.61
78223;BME280;67497;53.058;21.618;2024-01-27T07:59:56;100389.34;;;1.81;91.66
78223;BME280;67497;53.058;21.618;2024-01-27T08:01:57;100402.72;;;1.83;92.01
78223;BME280;67497;53.058;21.618;2024-01-27T08:03:57;100388.16;;;1.85;92.15
78223;BME280;67497;53.058;21.618;2024-01-27T08:05:57;100400.59;;;1.88;91.47
78223;BME280;67497;53.058;21.618;2024-01-27T08:07:58;100403.41;;;1.86;91.53
78223;BME280;67497;53.058;21.618;2024-01-27T08:09:58;100399.44;;;1.77;91.94
78223;BME280;67497;53.058;21.618;2024-01-27T08:11:59;100404.25;;;1.87;92.30
78223;BME280;67497;53.058;21.618;2024-01-27T08:14:00;100415.38;;;1.96;91.95
78223;BME280;67497;53.058;21.618;2024-01-27T08:16:00;100401.47;;;1.88;91.53
78223;BME280;67497;53.058;21.618;2024-01-27T08:18:01;100421.34;;;2.01;90.60
78223;BME280;67497;53.058;21.618;2024-01-27T08:20:01;100416.50;;;1.92;91.44
78223;BME280;67497;53.058;21.618;2024-01-27T08:22:02;100417.00;;;1.85;91.52
78223;BME280;67497;53.058;21.618;2024-01-27T08:24:03;100421.16;;;1.90;91.47
78223;BME280;67497;53.058;21.618;2024-01-27T08:26:04;100430.59;;;1.83;92.22
78223;BME280;67497;53.058;21.618;2024-01-27T08:28:05;100433.88;;;1.88;91.29
78223;BME280;67497;53.058;21.618;2024-01-27T08:30:06;100435.41;;;1.92;91.36
78223;BME280;67497;53.058;21.618;2024-01-27T08:32:07;100447.66;;;1.98;91.26
78223;BME280;67497;53.058;21.618;2024-01-27T08:34:07;100447.78;;;1.96;91.32
78223;BME280;67497;53.058;21.618;2024-01-27T08:36:13;100439.56;;;1.98;90.97
78223;BME280;67497;53.058;21.618;2024-01-27T08:38:14;100451.75;;;2.05;90.87
78223;BME280;67497;53.058;21.618;2024-01-27T08:40:15;100452.31;;;2.10;90.24
78223;BME280;67497;53.058;21.618;2024-01-27T08:42:17;100455.97;;;2.09;90.20
78223;BME280;67497;53.058;21.618;2024-01-27T08:44:17;100454.06;;;2.11;90.73
78223;BME280;67497;53.058;21.618;2024-01-27T08:46:18;100462.75;;;2.16;90.22
78223;BME280;67497;53.058;21.618;2024-01-27T08:48:19;100466.97;;;2.20;90.37
78223;BME280;67497;53.058;21.618;2024-01-27T08:50:21;100471.22;;;2.24;90.13
78223;BME280;67497;53.058;21.618;2024-01-27T08:52:21;100463.31;;;2.21;89.52
78223;BME280;67497;53.058;21.618;2024-01-27T08:54:22;100468.13;;;2.30;89.28
78223;BME280;67497;53.058;21.618;2024-01-27T08:56:23;100483.56;;;2.42;89.26
78223;BME280;67497;53.058;21.618;2024-01-27T08:58:23;100473.44;;;2.46;88.79
78223;BME280;67497;53.058;21.618;2024-01-27T09:00:23;100487.91;;;2.45;88.55
78223;BME280;67497;53.058;21.618;2024-01-27T09:02:24;100486.09;;;2.45;88.69
78223;BME280;67497;53.058;21.618;2024-01-27T09:04:24;100485.59;;;2.38;89.04
78223;BME280;67497;53.058;21.618;2024-01-27T09:06:24;100499.59;;;2.45;89.15
78223;BME280;67497;53.058;21.618;2024-01-27T09:08:25;100503.25;;;2.44;88.82
78223;BME280;67497;53.058;21.618;2024-01-27T09:10:26;100509.53;;;2.45;89.26
78223;BME280;67497;53.058;21.618;2024-01-27T09:12:28;100508.78;;;2.42;89.32
78223;BME280;67497;53.058;21.618;2024-01-27T09:14:29;100502.50;;;2.28;89.63
78223;BME280;67497;53.058;21.618;2024-01-27T09:16:29;100505.78;;;2.33;89.53
78223;BME280;67497;53.058;21.618;2024-01-27T09:18:30;100516.78;;;2.44;89.93
78223;BME280;67497;53.058;21.618;2024-01-27T09:20:30;100518.59;;;2.43;89.53
78223;BME280;67497;53.058;21.618;2024-01-27T09:22:31;100525.38;;;2.51;89.12
78223;BME280;67497;53.058;21.618;2024-01-27T09:24:32;100529.59;;;2.55;88.50
78223;BME280;67497;53.058;21.618;2024-01-27T09:26:32;100526.63;;;2.59;88.47
78223;BME280;67497;53.058;21.618;2024-01-27T09:28:32;100536.56;;;2.59;88.51
78223;BME280;67497;53.058;21.618;2024-01-27T09:30:33;100541.69;;;2.63;88.20
78223;BME280;67497;53.058;21.618;2024-01-27T09:32:33;100534.13;;;2.54;88.64
78223;BME280;67497;53.058;21.618;2024-01-27T09:34:34;100541.88;;;2.60;88.52
78223;BME280;67497;53.058;21.618;2024-01-27T09:36:34;100548.44;;;2.70;87.96
78223;BME280;67497;53.058;21.618;2024-01-27T09:38:35;100541.97;;;2.73;87.69
78223;BME280;67497;53.058;21.618;2024-01-27T09:40:36;100540.91;;;2.75;87.75
78223;BME280;67497;53.058;21.618;2024-01-27T09:42:37;100540.72;;;2.78;86.91
78223;BME280;67497;53.058;21.618;2024-01-27T09:44:39;100543.78;;;2.86;86.89
78223;BME280;67497;53.058;21.618;2024-01-27T09:46:43;100547.25;;;2.88;86.76
78223;BME280;67497;53.058;21.618;2024-01-27T09:48:43;100550.16;;;2.85;87.05
78223;BME280;67497;53.058;21.618;2024-01-27T09:50:45;100548.41;;;2.84;87.04
78223;BME280;67497;53.058;21.618;2024-01-27T09:52:49;100547.66;;;2.82;87.15
78223;BME280;67497;53.058;21.618;2024-01-27T09:54:49;100548.72;;;2.80;86.68
78223;BME280;67497;53.058;21.618;2024-01-27T09:56:50;100549.41;;;2.83;86.83
78223;BME280;67497;53.058;21.618;2024-01-27T09:58:51;100548.59;;;2.81;86.75
78223;BME280;67497;53.058;21.618;2024-01-27T10:00:56;100555.81;;;2.95;86.82
78223;BME280;67497;53.058;21.618;2024-01-27T10:02:58;100562.47;;;3.03;86.99
78223;BME280;67497;53.058;21.618;2024-01-27T10:04:58;100552.94;;;2.98;86.29
78223;BME280;67497;53.058;21.618;2024-01-27T10:07:00;100555.81;;;2.95;85.85
78223;BME280;67497;53.058;21.618;2024-01-27T10:09:00;100576.31;;;2.99;85.51
78223;BME280;67497;53.058;21.618;2024-01-27T10:11:09;100579.91;;;2.99;85.00
78223;BME280;67497;53.058;21.618;2024-01-27T10:13:10;100579.72;;;2.88;85.28
78223;BME280;67497;53.058;21.618;2024-01-27T10:15:21;100569.09;;;2.85;85.05
78223;BME280;67497;53.058;21.618;2024-01-27T10:17:22;100586.09;;;2.87;84.86
78223;BME280;67497;53.058;21.618;2024-01-27T10:19:23;100579.63;;;2.76;85.55
78223;BME280;67497;53.058;21.618;2024-01-27T10:21:23;100589.03;;;2.70;85.49
78223;BME280;67497;53.058;21.618;2024-01-27T10:23:26;100595.97;;;2.74;85.39
78223;BME280;67497;53.058;21.618;2024-01-27T10:25:26;100586.31;;;2.70;85.20
78223;BME280;67497;53.058;21.618;2024-01-27T10:27:27;100594.81;;;2.78;85.56
78223;BME280;67497;53.058;21.618;2024-01-27T10:29:27;100600.88;;;2.82;85.49
78223;BME280;67497;53.058;21.618;2024-01-27T10:31:33;100611.44;;;2.86;85.00